sensor_id;sensor_type;location;lat;lon;timestamp;temperature;humidity
78184;DHT22;67442;44.570;18.610;2023-07-31T00:02:21;24.90;55.60
78184;DHT22;67442;44.570;18.610;2023-07-31T00:04:48;24.90;55.50
78184;DHT22;67442;44.570;18.610;2023-07-31T00:07:20;24.90;55.50
78184;DHT22;67442;44.570;18.610;2023-07-31T00:09:47;24.90;55.50
78184;DHT22;67442;44.570;18.610;2023-07-31T00:12:14;24.90;55.50
78184;DHT22;67442;44.570;18.610;2023-07-31T00:14:42;24.90;55.50
78184;DHT22;67442;44.570;18.610;2023-07-31T00:17:09;24.90;55.50
78184;DHT22;67442;44.570;18.610;2023-07-31T00:19:36;24.90;55.40
78184;DHT22;67442;44.570;18.610;2023-07-31T00:22:04;24.90;55.40
78184;DHT22;67442;44.570;18.610;2023-07-31T00:24:32;24.90;55.40
78184;DHT22;67442;44.570;18.610;2023-07-31T00:26:59;24.90;55.40
78184;DHT22;67442;44.570;18.610;2023-07-31T00:29:27;24.90;55.40
78184;DHT22;67442;44.570;18.610;2023-07-31T00:31:58;24.90;55.40
78184;DHT22;67442;44.570;18.610;2023-07-31T00:34:26;24.90;55.40
78184;DHT22;67442;44.570;18.610;2023-07-31T00:36:53;24.90;55.30
78184;DHT22;67442;44.570;18.610;2023-07-31T00:39:20;24.90;55.90
78184;DHT22;67442;44.570;18.610;2023-07-31T00:41:47;24.90;55.30
78184;DHT22;67442;44.570;18.610;2023-07-31T00:44:15;24.90;55.20
78184;DHT22;67442;44.570;18.610;2023-07-31T00:46:42;24.90;55.20
78184;DHT22;67442;44.570;18.610;2023-07-31T00:49:09;24.90;55.10
78184;DHT22;67442;44.570;18.610;2023-07-31T00:51:38;24.90;55.20
78184;DHT22;67442;44.570;18.610;2023-07-31T00:54:06;24.90;55.10
78184;DHT22;67442;44.570;18.610;2023-07-31T00:56:34;24.90;55.10
78184;DHT22;67442;44.570;18.610;2023-07-31T00:59:00;24.80;55.10
78184;DHT22;67442;44.570;18.610;2023-07-31T01:01:27;24.80;55.00
78184;DHT22;67442;44.570;18.610;2023-07-31T01:03:55;24.80;55.00
78184;DHT22;67442;44.570;18.610;2023-07-31T01:09:41;24.90;55.00
78184;DHT22;67442;44.570;18.610;2023-07-31T01:12:15;24.80;54.90
78184;DHT22;67442;44.570;18.610;2023-07-31T01:15:02;24.90;54.90
78184;DHT22;67442;44.570;18.610;2023-07-31T01:17:28;24.80;54.90
78184;DHT22;67442;44.570;18.610;2023-07-31T01:20:02;24.80;54.90
78184;DHT22;67442;44.570;18.610;2023-07-31T01:28:20;24.80;54.90
78184;DHT22;67442;44.570;18.610;2023-07-31T01:30:53;24.80;55.60
78184;DHT22;67442;44.570;18.610;2023-07-31T01:33:21;24.80;54.90
78184;DHT22;67442;44.570;18.610;2023-07-31T01:35:49;24.80;54.90
78184;DHT22;67442;44.570;18.610;2023-07-31T01:38:19;24.80;54.90
78184;DHT22;67442;44.570;18.610;2023-07-31T01:40:51;24.80;54.90
78184;DHT22;67442;44.570;18.610;2023-07-31T01:43:19;24.80;55.00
78184;DHT22;67442;44.570;18.610;2023-07-31T01:45:46;24.80;55.00
78184;DHT22;67442;44.570;18.610;2023-07-31T01:48:13;24.80;55.00
78184;DHT22;67442;44.570;18.610;2023-07-31T01:50:40;24.80;54.90
78184;DHT22;67442;44.570;18.610;2023-07-31T01:53:08;24.80;54.90
78184;DHT22;67442;44.570;18.610;2023-07-31T01:55:35;24.80;54.90
78184;DHT22;67442;44.570;18.610;2023-07-31T01:58:02;24.80;54.90
78184;DHT22;67442;44.570;18.610;2023-07-31T02:00:29;24.80;55.00
78184;DHT22;67442;44.570;18.610;2023-07-31T02:02:56;24.80;55.30
78184;DHT22;67442;44.570;18.610;2023-07-31T02:05:24;24.80;55.60
78184;DHT22;67442;44.570;18.610;2023-07-31T02:07:51;24.80;55.70
78184;DHT22;67442;44.570;18.610;2023-07-31T02:10:18;24.80;55.80
78184;DHT22;67442;44.570;18.610;2023-07-31T02:12:46;24.90;56.00
78184;DHT22;67442;44.570;18.610;2023-07-31T02:15:13;24.90;56.10
78184;DHT22;67442;44.570;18.610;2023-07-31T02:17:40;24.90;56.20
78184;DHT22;67442;44.570;18.610;2023-07-31T02:20:08;24.90;56.20
78184;DHT22;67442;44.570;18.610;2023-07-31T02:22:36;25.00;56.30
78184;DHT22;67442;44.570;18.610;2023-07-31T02:25:04;25.00;56.30
78184;DHT22;67442;44.570;18.610;2023-07-31T02:27:32;25.00;56.30
78184;DHT22;67442;44.570;18.610;2023-07-31T02:30:03;25.10;56.30
78184;DHT22;67442;44.570;18.610;2023-07-31T02:32:31;25.10;56.40
78184;DHT22;67442;44.570;18.610;2023-07-31T02:35:02;25.10;56.40
78184;DHT22;67442;44.570;18.610;2023-07-31T02:37:29;25.10;56.40
78184;DHT22;67442;44.570;18.610;2023-07-31T02:39:57;25.10;56.50
78184;DHT22;67442;44.570;18.610;2023-07-31T02:42:24;25.10;56.50
78184;DHT22;67442;44.570;18.610;2023-07-31T02:44:51;25.10;56.50
78184;DHT22;67442;44.570;18.610;2023-07-31T02:47:22;25.10;56.50
78184;DHT22;67442;44.570;18.610;2023-07-31T02:49:49;25.20;56.60
78184;DHT22;67442;44.570;18.610;2023-07-31T02:52:16;25.20;56.60
78184;DHT22;67442;44.570;18.610;2023-07-31T02:54:43;25.20;56.60
78184;DHT22;67442;44.570;18.610;2023-07-31T02:57:11;25.20;56.60
78184;DHT22;67442;44.570;18.610;2023-07-31T02:59:38;25.20;56.70
78184;DHT22;67442;44.570;18.610;2023-07-31T03:02:06;25.30;56.70
78184;DHT22;67442;44.570;18.610;2023-07-31T03:04:33;25.30;56.80
78184;DHT22;67442;44.570;18.610;2023-07-31T03:07:00;25.20;56.80
78184;DHT22;67442;44.570;18.610;2023-07-31T03:09:27;25.30;56.80
78184;DHT22;67442;44.570;18.610;2023-07-31T03:11:54;25.30;56.80
78184;DHT22;67442;44.570;18.610;2023-07-31T03:14:22;25.30;56.70
78184;DHT22;67442;44.570;18.610;2023-07-31T03:16:55;25.30;56.80
78184;DHT22;67442;44.570;18.610;2023-07-31T03:19:22;25.30;56.80
78184;DHT22;67442;44.570;18.610;2023-07-31T03:21:48;25.30;56.80
78184;DHT22;67442;44.570;18.610;2023-07-31T03:24:15;25.40;56.80
78184;DHT22;67442;44.570;18.610;2023-07-31T03:26:42;25.30;56.80
78184;DHT22;67442;44.570;18.610;2023-07-31T03:29:09;25.40;56.90
78184;DHT22;67442;44.570;18.610;2023-07-31T03:31:39;25.40;56.80
78184;DHT22;67442;44.570;18.610;2023-07-31T03:34:07;25.40;56.90
78184;DHT22;67442;44.570;18.610;2023-07-31T03:36:34;25.40;56.80
78184;DHT22;67442;44.570;18.610;2023-07-31T03:39:05;25.40;56.80
78184;DHT22;67442;44.570;18.610;2023-07-31T03:41:32;25.40;56.90
78184;DHT22;67442;44.570;18.610;2023-07-31T03:43:59;25.40;56.90
78184;DHT22;67442;44.570;18.610;2023-07-31T03:46:26;25.40;56.90
78184;DHT22;67442;44.570;18.610;2023-07-31T03:48:53;25.40;56.90
78184;DHT22;67442;44.570;18.610;2023-07-31T03:51:20;25.40;56.90
78184;DHT22;67442;44.570;18.610;2023-07-31T03:53:46;25.40;56.90
78184;DHT22;67442;44.570;18.610;2023-07-31T03:56:17;25.40;57.00
78184;DHT22;67442;44.570;18.610;2023-07-31T03:58:48;25.40;56.90
78184;DHT22;67442;44.570;18.610;2023-07-31T04:01:19;25.50;57.00
78184;DHT22;67442;44.570;18.610;2023-07-31T04:03:46;25.40;56.90
78184;DHT22;67442;44.570;18.610;2023-07-31T04:06:13;25.40;57.00
78184;DHT22;67442;44.570;18.610;2023-07-31T04:08:44;25.50;57.00
78184;DHT22;67442;44.570;18.610;2023-07-31T04:11:12;25.40;57.00
78184;DHT22;67442;44.570;18.610;2023-07-31T04:13:43;25.50;57.00
78184;DHT22;67442;44.570;18.610;2023-07-31T04:16:10;25.50;57.10
78184;DHT22;67442;44.570;18.610;2023-07-31T04:18:38;25.50;57.10
78184;DHT22;67442;44.570;18.610;2023-07-31T04:21:05;25.50;57.10
78184;DHT22;67442;44.570;18.610;2023-07-31T04:23:32;25.50;57.10
78184;DHT22;67442;44.570;18.610;2023-07-31T04:26:00;25.50;57.20
78184;DHT22;67442;44.570;18.610;2023-07-31T04:28:27;25.50;57.20
78184;DHT22;67442;44.570;18.610;2023-07-31T04:30:55;25.50;57.20
78184;DHT22;67442;44.570;18.610;2023-07-31T04:33:22;25.50;57.20
78184;DHT22;67442;44.570;18.610;2023-07-31T04:35:52;25.50;57.20
78184;DHT22;67442;44.570;18.610;2023-07-31T04:38:20;25.50;57.20
78184;DHT22;67442;44.570;18.610;2023-07-31T04:40:47;25.50;57.30
78184;DHT22;67442;44.570;18.610;2023-07-31T04:43:13;25.50;57.30
78184;DHT22;67442;44.570;18.610;2023-07-31T04:45:45;25.50;57.30
78184;DHT22;67442;44.570;18.610;2023-07-31T04:48:12;25.50;57.40
78184;DHT22;67442;44.570;18.610;2023-07-31T04:50:39;25.50;57.50
78184;DHT22;67442;44.570;18.610;2023-07-31T04:53:06;25.60;57.50
78184;DHT22;67442;44.570;18.610;2023-07-31T04:55:34;25.60;57.70
78184;DHT22;67442;44.570;18.610;2023-07-31T04:58:01;25.60;58.10
78184;DHT22;67442;44.570;18.610;2023-07-31T05:00:28;25.60;58.60
78184;DHT22;67442;44.570;18.610;2023-07-31T05:02:55;25.60;59.20
78184;DHT22;67442;44.570;18.610;2023-07-31T05:05:27;25.60;59.60
78184;DHT22;67442;44.570;18.610;2023-07-31T05:07:54;25.60;59.90
78184;DHT22;67442;44.570;18.610;2023-07-31T05:10:21;25.60;60.80
78184;DHT22;67442;44.570;18.610;2023-07-31T05:12:53;25.60;61.70
78184;DHT22;67442;44.570;18.610;2023-07-31T05:15:20;25.60;62.30
78184;DHT22;67442;44.570;18.610;2023-07-31T05:17:47;25.60;62.80
78184;DHT22;67442;44.570;18.610;2023-07-31T05:20:15;25.60;63.20
78184;DHT22;67442;44.570;18.610;2023-07-31T05:22:42;25.60;63.50
78184;DHT22;67442;44.570;18.610;2023-07-31T05:25:09;25.60;63.90
78184;DHT22;67442;44.570;18.610;2023-07-31T05:27:40;25.60;64.20
78184;DHT22;67442;44.570;18.610;2023-07-31T05:30:09;25.60;64.40
78184;DHT22;67442;44.570;18.610;2023-07-31T05:32:36;25.60;64.70
78184;DHT22;67442;44.570;18.610;2023-07-31T05:35:07;25.60;64.80
78184;DHT22;67442;44.570;18.610;2023-07-31T05:37:35;25.60;65.00
78184;DHT22;67442;44.570;18.610;2023-07-31T05:40:03;25.60;65.30
78184;DHT22;67442;44.570;18.610;2023-07-31T05:42:31;25.50;65.50
78184;DHT22;67442;44.570;18.610;2023-07-31T05:44:58;25.60;65.80
78184;DHT22;67442;44.570;18.610;2023-07-31T05:47:26;25.50;65.90
78184;DHT22;67442;44.570;18.610;2023-07-31T05:49:53;25.60;66.10
78184;DHT22;67442;44.570;18.610;2023-07-31T05:52:21;25.60;66.40
78184;DHT22;67442;44.570;18.610;2023-07-31T05:54:51;25.60;66.50
78184;DHT22;67442;44.570;18.610;2023-07-31T05:57:19;25.50;66.60
78184;DHT22;67442;44.570;18.610;2023-07-31T05:59:46;25.50;66.80
78184;DHT22;67442;44.570;18.610;2023-07-31T06:02:13;25.50;66.90
78184;DHT22;67442;44.570;18.610;2023-07-31T06:04:40;25.50;67.10
78184;DHT22;67442;44.570;18.610;2023-07-31T06:07:07;25.60;67.20
78184;DHT22;67442;44.570;18.610;2023-07-31T06:09:34;25.60;67.30
78184;DHT22;67442;44.570;18.610;2023-07-31T06:12:02;25.60;67.40
78184;DHT22;67442;44.570;18.610;2023-07-31T06:14:30;25.50;67.40
78184;DHT22;67442;44.570;18.610;2023-07-31T06:16:57;25.60;67.60
78184;DHT22;67442;44.570;18.610;2023-07-31T06:19:24;25.50;67.80
78184;DHT22;67442;44.570;18.610;2023-07-31T06:21:52;25.50;67.80
78184;DHT22;67442;44.570;18.610;2023-07-31T06:24:19;25.60;68.10
78184;DHT22;67442;44.570;18.610;2023-07-31T06:26:48;25.60;68.30
78184;DHT22;67442;44.570;18.610;2023-07-31T06:29:15;25.60;68.50
78184;DHT22;67442;44.570;18.610;2023-07-31T06:31:42;25.60;68.60
78184;DHT22;67442;44.570;18.610;2023-07-31T06:34:10;25.60;68.70
78184;DHT22;67442;44.570;18.610;2023-07-31T06:36:37;25.60;68.70
78184;DHT22;67442;44.570;18.610;2023-07-31T06:39:08;25.60;68.80
78184;DHT22;67442;44.570;18.610;2023-07-31T06:41:39;25.60;68.80
78184;DHT22;67442;44.570;18.610;2023-07-31T06:44:26;25.60;69.10
78184;DHT22;67442;44.570;18.610;2023-07-31T06:46:54;25.60;69.10
78184;DHT22;67442;44.570;18.610;2023-07-31T06:49:25;25.60;69.20
78184;DHT22;67442;44.570;18.610;2023-07-31T06:51:54;25.60;69.20
78184;DHT22;67442;44.570;18.610;2023-07-31T06:54:25;25.60;69.20
78184;DHT22;67442;44.570;18.610;2023-07-31T06:56:53;25.60;69.10
78184;DHT22;67442;44.570;18.610;2023-07-31T06:59:27;25.60;69.20
78184;DHT22;67442;44.570;18.610;2023-07-31T07:01:54;25.60;69.10
78184;DHT22;67442;44.570;18.610;2023-07-31T07:04:21;25.60;69.00
78184;DHT22;67442;44.570;18.610;2023-07-31T07:06:49;25.60;69.10
78184;DHT22;67442;44.570;18.610;2023-07-31T07:09:16;25.60;69.00
78184;DHT22;67442;44.570;18.610;2023-07-31T07:11:44;25.60;68.80
78184;DHT22;67442;44.570;18.610;2023-07-31T07:14:12;25.60;68.40
78184;DHT22;67442;44.570;18.610;2023-07-31T07:16:43;25.60;68.10
78184;DHT22;67442;44.570;18.610;2023-07-31T07:19:10;25.60;68.20
78184;DHT22;67442;44.570;18.610;2023-07-31T07:21:37;25.70;68.50
78184;DHT22;67442;44.570;18.610;2023-07-31T07:24:04;25.60;68.60
78184;DHT22;67442;44.570;18.610;2023-07-31T07:26:32;25.60;68.80
78184;DHT22;67442;44.570;18.610;2023-07-31T07:28:59;25.60;68.50
78184;DHT22;67442;44.570;18.610;2023-07-31T07:31:31;25.60;68.40
78184;DHT22;67442;44.570;18.610;2023-07-31T07:34:02;25.60;68.50
78184;DHT22;67442;44.570;18.610;2023-07-31T07:36:29;25.60;68.50
78184;DHT22;67442;44.570;18.610;2023-07-31T07:38:56;25.60;68.80
78184;DHT22;67442;44.570;18.610;2023-07-31T07:41:24;25.70;68.90
78184;DHT22;67442;44.570;18.610;2023-07-31T07:43:51;25.70;68.70
78184;DHT22;67442;44.570;18.610;2023-07-31T07:46:18;25.60;68.80
78184;DHT22;67442;44.570;18.610;2023-07-31T07:48:46;25.70;68.40
78184;DHT22;67442;44.570;18.610;2023-07-31T07:51:17;25.70;67.90
78184;DHT22;67442;44.570;18.610;2023-07-31T07:53:44;25.60;67.30
78184;DHT22;67442;44.570;18.610;2023-07-31T07:56:11;25.70;66.80
78184;DHT22;67442;44.570;18.610;2023-07-31T07:58:38;25.60;66.10
78184;DHT22;67442;44.570;18.610;2023-07-31T08:01:05;25.70;66.00
78184;DHT22;67442;44.570;18.610;2023-07-31T08:03:32;25.70;65.40
78184;DHT22;67442;44.570;18.610;2023-07-31T08:06:01;25.70;64.80
78184;DHT22;67442;44.570;18.610;2023-07-31T08:08:47;25.70;64.60
78184;DHT22;67442;44.570;18.610;2023-07-31T08:11:18;25.70;64.50
78184;DHT22;67442;44.570;18.610;2023-07-31T08:13:46;25.70;63.90
78184;DHT22;67442;44.570;18.610;2023-07-31T08:16:17;25.70;64.20
78184;DHT22;67442;44.570;18.610;2023-07-31T08:18:48;25.70;64.20
78184;DHT22;67442;44.570;18.610;2023-07-31T08:21:15;25.70;63.70
78184;DHT22;67442;44.570;18.610;2023-07-31T08:23:42;25.70;63.40
78184;DHT22;67442;44.570;18.610;2023-07-31T08:26:15;25.70;63.30
78184;DHT22;67442;44.570;18.610;2023-07-31T08:28:42;25.70;63.10
78184;DHT22;67442;44.570;18.610;2023-07-31T08:31:10;25.80;63.40
78184;DHT22;67442;44.570;18.610;2023-07-31T08:33:41;25.70;63.20
78184;DHT22;67442;44.570;18.610;2023-07-31T08:36:08;25.70;62.80
78184;DHT22;67442;44.570;18.610;2023-07-31T08:38:35;25.70;62.00
78184;DHT22;67442;44.570;18.610;2023-07-31T08:41:06;25.80;61.40
78184;DHT22;67442;44.570;18.610;2023-07-31T08:43:33;25.80;60.10
78184;DHT22;67442;44.570;18.610;2023-07-31T08:46:05;25.80;59.40
78184;DHT22;67442;44.570;18.610;2023-07-31T08:48:32;25.70;59.90
78184;DHT22;67442;44.570;18.610;2023-07-31T08:50:59;25.70;59.70
78184;DHT22;67442;44.570;18.610;2023-07-31T08:53:27;25.70;59.90
78184;DHT22;67442;44.570;18.610;2023-07-31T08:55:54;25.70;60.20
78184;DHT22;67442;44.570;18.610;2023-07-31T08:58:28;25.70;60.30
78184;DHT22;67442;44.570;18.610;2023-07-31T09:00:58;25.70;60.30
78184;DHT22;67442;44.570;18.610;2023-07-31T09:03:26;25.70;60.40
78184;DHT22;67442;44.570;18.610;2023-07-31T09:05:56;25.70;60.10
78184;DHT22;67442;44.570;18.610;2023-07-31T09:08:26;25.70;59.90
78184;DHT22;67442;44.570;18.610;2023-07-31T09:10:53;25.70;60.00
78184;DHT22;67442;44.570;18.610;2023-07-31T09:13:22;25.70;60.00
78184;DHT22;67442;44.570;18.610;2023-07-31T09:15:49;25.80;60.00
78184;DHT22;67442;44.570;18.610;2023-07-31T09:18:16;25.70;59.90
78184;DHT22;67442;44.570;18.610;2023-07-31T09:20:46;25.70;59.90
78184;DHT22;67442;44.570;18.610;2023-07-31T09:23:44;25.70;59.90
78184;DHT22;67442;44.570;18.610;2023-07-31T09:26:11;25.70;60.00
78184;DHT22;67442;44.570;18.610;2023-07-31T09:28:55;25.80;60.00
78184;DHT22;67442;44.570;18.610;2023-07-31T09:31:41;25.80;60.00
78184;DHT22;67442;44.570;18.610;2023-07-31T09:34:09;25.80;60.00
78184;DHT22;67442;44.570;18.610;2023-07-31T09:36:57;25.70;59.90
78184;DHT22;67442;44.570;18.610;2023-07-31T09:39:25;25.70;60.00
78184;DHT22;67442;44.570;18.610;2023-07-31T09:41:56;25.70;59.90
78184;DHT22;67442;44.570;18.610;2023-07-31T09:44:40;25.70;59.90
78184;DHT22;67442;44.570;18.610;2023-07-31T09:47:07;25.80;60.00
78184;DHT22;67442;44.570;18.610;2023-07-31T09:49:36;25.80;59.90
78184;DHT22;67442;44.570;18.610;2023-07-31T09:52:12;25.70;59.90
78184;DHT22;67442;44.570;18.610;2023-07-31T09:54:39;25.70;59.90
78184;DHT22;67442;44.570;18.610;2023-07-31T09:57:08;25.80;59.90
78184;DHT22;67442;44.570;18.610;2023-07-31T09:59:39;25.80;59.90
78184;DHT22;67442;44.570;18.610;2023-07-31T10:02:10;25.80;60.70
78184;DHT22;67442;44.570;18.610;2023-07-31T10:04:43;25.70;59.90
78184;DHT22;67442;44.570;18.610;2023-07-31T10:07:16;25.80;59.90
78184;DHT22;67442;44.570;18.610;2023-07-31T10:09:43;25.80;60.00
78184;DHT22;67442;44.570;18.610;2023-07-31T10:12:12;25.80;59.90
78184;DHT22;67442;44.570;18.610;2023-07-31T10:14:41;25.80;59.90
78184;DHT22;67442;44.570;18.610;2023-07-31T10:17:08;25.80;59.90
78184;DHT22;67442;44.570;18.610;2023-07-31T10:19:36;25.80;59.90
78184;DHT22;67442;44.570;18.610;2023-07-31T10:22:04;25.80;59.90
78184;DHT22;67442;44.570;18.610;2023-07-31T10:24:31;25.80;59.90
78184;DHT22;67442;44.570;18.610;2023-07-31T10:27:00;25.80;59.90
78184;DHT22;67442;44.570;18.610;2023-07-31T10:29:29;25.80;59.90
78184;DHT22;67442;44.570;18.610;2023-07-31T10:31:57;25.80;59.90
78184;DHT22;67442;44.570;18.610;2023-07-31T10:34:24;25.80;59.90
78184;DHT22;67442;44.570;18.610;2023-07-31T10:39:59;25.80;59.90
78184;DHT22;67442;44.570;18.610;2023-07-31T10:42:35;25.80;59.80
78184;DHT22;67442;44.570;18.610;2023-07-31T10:45:07;25.80;59.80
78184;DHT22;67442;44.570;18.610;2023-07-31T10:47:46;25.80;59.80
78184;DHT22;67442;44.570;18.610;2023-07-31T10:50:20;25.80;59.80
78184;DHT22;67442;44.570;18.610;2023-07-31T10:52:55;25.80;59.80
78184;DHT22;67442;44.570;18.610;2023-07-31T10:55:33;25.80;59.80
78184;DHT22;67442;44.570;18.610;2023-07-31T10:58:14;25.80;59.80
78184;DHT22;67442;44.570;18.610;2023-07-31T11:00:48;25.80;59.80
78184;DHT22;67442;44.570;18.610;2023-07-31T11:03:19;25.80;59.80
78184;DHT22;67442;44.570;18.610;2023-07-31T11:05:59;25.80;59.80
78184;DHT22;67442;44.570;18.610;2023-07-31T11:08:33;25.80;59.70
78184;DHT22;67442;44.570;18.610;2023-07-31T11:11:05;25.80;59.70
78184;DHT22;67442;44.570;18.610;2023-07-31T11:13:46;25.80;59.80
78184;DHT22;67442;44.570;18.610;2023-07-31T11:16:17;25.80;59.70
78184;DHT22;67442;44.570;18.610;2023-07-31T11:18:45;25.80;59.70
78184;DHT22;67442;44.570;18.610;2023-07-31T11:21:21;25.80;59.70
78184;DHT22;67442;44.570;18.610;2023-07-31T11:23:49;25.80;59.70
78184;DHT22;67442;44.570;18.610;2023-07-31T11:26:17;25.80;59.70
78184;DHT22;67442;44.570;18.610;2023-07-31T11:28:48;25.80;59.80
78184;DHT22;67442;44.570;18.610;2023-07-31T11:31:19;25.80;59.70
78184;DHT22;67442;44.570;18.610;2023-07-31T11:33:50;25.80;59.70
78184;DHT22;67442;44.570;18.610;2023-07-31T11:36:19;25.80;59.70
78184;DHT22;67442;44.570;18.610;2023-07-31T11:38:46;25.80;59.70
78184;DHT22;67442;44.570;18.610;2023-07-31T11:41:14;25.90;59.80
78184;DHT22;67442;44.570;18.610;2023-07-31T11:43:46;25.80;59.70
78184;DHT22;67442;44.570;18.610;2023-07-31T11:46:13;25.90;59.80
78184;DHT22;67442;44.570;18.610;2023-07-31T11:48:41;25.80;59.70
78184;DHT22;67442;44.570;18.610;2023-07-31T11:51:13;25.80;59.80
78184;DHT22;67442;44.570;18.610;2023-07-31T11:53:42;25.80;59.70
78184;DHT22;67442;44.570;18.610;2023-07-31T11:56:19;25.80;59.70
78184;DHT22;67442;44.570;18.610;2023-07-31T11:58:47;25.80;59.70
78184;DHT22;67442;44.570;18.610;2023-07-31T12:01:16;25.80;59.70
78184;DHT22;67442;44.570;18.610;2023-07-31T12:03:46;25.90;59.80
78184;DHT22;67442;44.570;18.610;2023-07-31T12:06:16;25.80;59.70
78184;DHT22;67442;44.570;18.610;2023-07-31T12:08:43;25.90;59.80
78184;DHT22;67442;44.570;18.610;2023-07-31T12:11:11;25.90;59.70
78184;DHT22;67442;44.570;18.610;2023-07-31T12:13:40;25.90;59.80
78184;DHT22;67442;44.570;18.610;2023-07-31T12:16:07;25.80;59.70
78184;DHT22;67442;44.570;18.610;2023-07-31T12:18:36;25.90;59.70
78184;DHT22;67442;44.570;18.610;2023-07-31T12:21:05;25.90;59.70
78184;DHT22;67442;44.570;18.610;2023-07-31T12:23:33;25.90;59.70
78184;DHT22;67442;44.570;18.610;2023-07-31T12:26:11;25.80;60.30
78184;DHT22;67442;44.570;18.610;2023-07-31T12:33:40;25.90;59.80
78184;DHT22;67442;44.570;18.610;2023-07-31T12:36:15;25.90;59.70
78184;DHT22;67442;44.570;18.610;2023-07-31T12:38:43;25.90;59.70
78184;DHT22;67442;44.570;18.610;2023-07-31T12:41:10;25.90;59.70
78184;DHT22;67442;44.570;18.610;2023-07-31T12:43:39;25.90;59.70
78184;DHT22;67442;44.570;18.610;2023-07-31T12:46:10;25.90;59.70
78184;DHT22;67442;44.570;18.610;2023-07-31T12:48:38;25.90;59.70
78184;DHT22;67442;44.570;18.610;2023-07-31T12:51:06;25.90;59.70
78184;DHT22;67442;44.570;18.610;2023-07-31T12:53:33;25.90;59.70
78184;DHT22;67442;44.570;18.610;2023-07-31T12:56:00;25.90;59.70
78184;DHT22;67442;44.570;18.610;2023-07-31T12:58:31;25.90;59.70
78184;DHT22;67442;44.570;18.610;2023-07-31T13:00:58;25.90;59.70
78184;DHT22;67442;44.570;18.610;2023-07-31T13:03:30;25.90;59.70
78184;DHT22;67442;44.570;18.610;2023-07-31T13:06:01;25.90;59.70
78184;DHT22;67442;44.570;18.610;2023-07-31T13:08:29;25.90;59.70
78184;DHT22;67442;44.570;18.610;2023-07-31T13:10:56;25.90;59.70
78184;DHT22;67442;44.570;18.610;2023-07-31T13:13:24;25.90;59.70
78184;DHT22;67442;44.570;18.610;2023-07-31T13:15:55;25.90;59.70
78184;DHT22;67442;44.570;18.610;2023-07-31T13:18:22;25.90;59.60
78184;DHT22;67442;44.570;18.610;2023-07-31T13:20:49;25.90;59.60
78184;DHT22;67442;44.570;18.610;2023-07-31T13:23:16;25.90;59.70
78184;DHT22;67442;44.570;18.610;2023-07-31T13:25:47;25.90;59.60
78184;DHT22;67442;44.570;18.610;2023-07-31T13:28:15;25.90;59.60
78184;DHT22;67442;44.570;18.610;2023-07-31T13:30:42;25.90;59.60
78184;DHT22;67442;44.570;18.610;2023-07-31T13:33:10;25.90;59.60
78184;DHT22;67442;44.570;18.610;2023-07-31T13:35:37;25.90;59.70
78184;DHT22;67442;44.570;18.610;2023-07-31T13:38:04;26.00;59.70
78184;DHT22;67442;44.570;18.610;2023-07-31T13:40:32;26.00;59.70
78184;DHT22;67442;44.570;18.610;2023-07-31T13:43:03;26.00;59.70
78184;DHT22;67442;44.570;18.610;2023-07-31T13:45:30;25.90;59.60
78184;DHT22;67442;44.570;18.610;2023-07-31T13:47:57;25.90;59.60
78184;DHT22;67442;44.570;18.610;2023-07-31T13:50:25;25.90;59.60
78184;DHT22;67442;44.570;18.610;2023-07-31T13:52:52;25.90;59.60
78184;DHT22;67442;44.570;18.610;2023-07-31T13:55:23;25.90;59.60
78184;DHT22;67442;44.570;18.610;2023-07-31T13:57:51;25.90;59.60
78184;DHT22;67442;44.570;18.610;2023-07-31T14:00:19;25.90;59.60
78184;DHT22;67442;44.570;18.610;2023-07-31T14:02:46;26.00;59.70
78184;DHT22;67442;44.570;18.610;2023-07-31T14:05:14;26.00;59.70
78184;DHT22;67442;44.570;18.610;2023-07-31T14:07:41;25.90;59.60
78184;DHT22;67442;44.570;18.610;2023-07-31T14:10:09;26.00;59.70
78184;DHT22;67442;44.570;18.610;2023-07-31T14:12:36;26.00;59.70
78184;DHT22;67442;44.570;18.610;2023-07-31T14:15:04;26.00;59.70
78184;DHT22;67442;44.570;18.610;2023-07-31T14:17:31;26.00;59.70
78184;DHT22;67442;44.570;18.610;2023-07-31T14:19:58;26.00;59.70
78184;DHT22;67442;44.570;18.610;2023-07-31T14:22:31;26.00;59.70
78184;DHT22;67442;44.570;18.610;2023-07-31T14:24:59;26.00;59.70
78184;DHT22;67442;44.570;18.610;2023-07-31T14:27:27;26.00;59.70
78184;DHT22;67442;44.570;18.610;2023-07-31T14:29:53;26.00;59.70
78184;DHT22;67442;44.570;18.610;2023-07-31T14:32:22;26.00;59.70
78184;DHT22;67442;44.570;18.610;2023-07-31T14:34:50;26.00;59.70
78184;DHT22;67442;44.570;18.610;2023-07-31T14:37:17;26.00;58.90
78184;DHT22;67442;44.570;18.610;2023-07-31T14:39:44;25.90;58.50
78184;DHT22;67442;44.570;18.610;2023-07-31T14:42:15;25.90;58.10
78184;DHT22;67442;44.570;18.610;2023-07-31T14:44:47;25.80;57.90
78184;DHT22;67442;44.570;18.610;2023-07-31T14:47:14;25.80;57.70
78184;DHT22;67442;44.570;18.610;2023-07-31T14:49:41;25.80;57.60
78184;DHT22;67442;44.570;18.610;2023-07-31T14:52:09;25.80;57.50
78184;DHT22;67442;44.570;18.610;2023-07-31T14:54:36;25.80;57.30
78184;DHT22;67442;44.570;18.610;2023-07-31T14:57:03;25.70;57.10
78184;DHT22;67442;44.570;18.610;2023-07-31T14:59:32;25.70;57.00
78184;DHT22;67442;44.570;18.610;2023-07-31T15:01:59;25.60;57.00
78184;DHT22;67442;44.570;18.610;2023-07-31T15:04:30;25.60;56.80
78184;DHT22;67442;44.570;18.610;2023-07-31T15:07:01;25.60;56.70
78184;DHT22;67442;44.570;18.610;2023-07-31T15:09:28;25.60;56.60
78184;DHT22;67442;44.570;18.610;2023-07-31T15:11:56;25.50;56.40
78184;DHT22;67442;44.570;18.610;2023-07-31T15:14:24;25.50;56.20
78184;DHT22;67442;44.570;18.610;2023-07-31T15:16:50;25.50;56.10
78184;DHT22;67442;44.570;18.610;2023-07-31T15:19:17;25.40;55.90
78184;DHT22;67442;44.570;18.610;2023-07-31T15:21:44;25.50;56.00
78184;DHT22;67442;44.570;18.610;2023-07-31T15:24:11;25.40;55.80
78184;DHT22;67442;44.570;18.610;2023-07-31T15:26:39;25.40;55.80
78184;DHT22;67442;44.570;18.610;2023-07-31T15:29:08;25.40;55.70
78184;DHT22;67442;44.570;18.610;2023-07-31T15:31:40;25.40;55.60
78184;DHT22;67442;44.570;18.610;2023-07-31T15:34:07;25.40;55.50
78184;DHT22;67442;44.570;18.610;2023-07-31T15:36:34;25.40;55.50
78184;DHT22;67442;44.570;18.610;2023-07-31T15:39:05;25.40;55.60
78184;DHT22;67442;44.570;18.610;2023-07-31T15:41:36;25.30;55.90
78184;DHT22;67442;44.570;18.610;2023-07-31T15:44:05;25.30;56.00